sensor_id;sensor_type;location;lat;lon;timestamp;temperature;humidity
21473;DHT22;10898;48.072;11.682;2023-12-20T00:00:40;5.50;62.30
21473;DHT22;10898;48.072;11.682;2023-12-20T00:02:42;5.50;62.20
21473;DHT22;10898;48.072;11.682;2023-12-20T00:04:48;5.40;62.30
21473;DHT22;10898;48.072;11.682;2023-12-20T00:06:50;5.40;62.20
21473;DHT22;10898;48.072;11.682;2023-12-20T00:08:53;5.30;62.20
21473;DHT22;10898;48.072;11.682;2023-12-20T00:10:55;5.30;62.10
21473;DHT22;10898;48.072;11.682;2023-12-20T00:12:57;5.30;62.00
21473;DHT22;10898;48.072;11.682;2023-12-20T00:14:59;5.30;62.20
21473;DHT22;10898;48.072;11.682;2023-12-20T00:17:00;5.30;62.30
21473;DHT22;10898;48.072;11.682;2023-12-20T00:19:02;5.40;61.70
21473;DHT22;10898;48.072;11.682;2023-12-20T00:21:04;5.40;61.90
21473;DHT22;10898;48.072;11.682;2023-12-20T00:23:09;5.40;62.00
21473;DHT22;10898;48.072;11.682;2023-12-20T00:25:11;5.40;62.90
21473;DHT22;10898;48.072;11.682;2023-12-20T00:27:13;5.40;61.90
21473;DHT22;10898;48.072;11.682;2023-12-20T00:29:14;5.40;62.00
21473;DHT22;10898;48.072;11.682;2023-12-20T00:31:16;5.40;61.70
21473;DHT22;10898;48.072;11.682;2023-12-20T00:33:18;5.40;61.50
21473;DHT22;10898;48.072;11.682;2023-12-20T00:35:20;5.40;61.80
21473;DHT22;10898;48.072;11.682;2023-12-20T00:37:22;5.40;62.30
21473;DHT22;10898;48.072;11.682;2023-12-20T00:39:25;5.40;62.30
21473;DHT22;10898;48.072;11.682;2023-12-20T00:41:27;5.40;63.20
21473;DHT22;10898;48.072;11.682;2023-12-20T00:43:29;5.30;62.70
21473;DHT22;10898;48.072;11.682;2023-12-20T00:45:31;5.30;62.50
21473;DHT22;10898;48.072;11.682;2023-12-20T00:47:32;5.30;62.60
21473;DHT22;10898;48.072;11.682;2023-12-20T00:49:34;5.30;62.60
21473;DHT22;10898;48.072;11.682;2023-12-20T00:51:36;5.40;62.50
21473;DHT22;10898;48.072;11.682;2023-12-20T00:53:38;5.40;62.60
21473;DHT22;10898;48.072;11.682;2023-12-20T00:55:40;5.40;62.60
21473;DHT22;10898;48.072;11.682;2023-12-20T00:57:42;5.40;62.60
21473;DHT22;10898;48.072;11.682;2023-12-20T00:59:44;5.40;62.70
21473;DHT22;10898;48.072;11.682;2023-12-20T01:01:46;5.40;63.20
21473;DHT22;10898;48.072;11.682;2023-12-20T01:03:48;5.40;63.30
21473;DHT22;10898;48.072;11.682;2023-12-20T01:05:53;5.30;63.10
21473;DHT22;10898;48.072;11.682;2023-12-20T01:07:54;5.40;63.20
21473;DHT22;10898;48.072;11.682;2023-12-20T01:09:56;5.40;63.50
21473;DHT22;10898;48.072;11.682;2023-12-20T01:11:58;5.30;63.70
21473;DHT22;10898;48.072;11.682;2023-12-20T01:14:00;5.30;63.90
21473;DHT22;10898;48.072;11.682;2023-12-20T01:16:02;5.30;64.00
21473;DHT22;10898;48.072;11.682;2023-12-20T01:18:04;5.30;64.20
21473;DHT22;10898;48.072;11.682;2023-12-20T01:20:07;5.30;64.30
21473;DHT22;10898;48.072;11.682;2023-12-20T01:22:09;5.30;64.50
21473;DHT22;10898;48.072;11.682;2023-12-20T01:24:11;5.30;64.60
21473;DHT22;10898;48.072;11.682;2023-12-20T01:26:13;5.30;64.50
21473;DHT22;10898;48.072;11.682;2023-12-20T01:28:16;5.30;64.50
21473;DHT22;10898;48.072;11.682;2023-12-20T01:30:18;5.30;64.40
21473;DHT22;10898;48.072;11.682;2023-12-20T01:32:19;5.30;64.60
21473;DHT22;10898;48.072;11.682;2023-12-20T01:34:21;5.30;65.00
21473;DHT22;10898;48.072;11.682;2023-12-20T01:36:23;5.30;65.40
21473;DHT22;10898;48.072;11.682;2023-12-20T01:38:25;5.20;65.60
21473;DHT22;10898;48.072;11.682;2023-12-20T01:40:27;5.20;65.50
21473;DHT22;10898;48.072;11.682;2023-12-20T01:42:29;5.20;66.10
21473;DHT22;10898;48.072;11.682;2023-12-20T01:44:31;5.20;65.90
21473;DHT22;10898;48.072;11.682;2023-12-20T01:46:33;5.20;65.40
21473;DHT22;10898;48.072;11.682;2023-12-20T01:48:34;5.20;66.90
21473;DHT22;10898;48.072;11.682;2023-12-20T01:50:37;5.20;66.00
21473;DHT22;10898;48.072;11.682;2023-12-20T01:52:39;5.20;65.90
21473;DHT22;10898;48.072;11.682;2023-12-20T01:54:42;5.20;66.70
21473;DHT22;10898;48.072;11.682;2023-12-20T01:56:44;5.20;65.60
21473;DHT22;10898;48.072;11.682;2023-12-20T01:58:47;5.20;65.20
21473;DHT22;10898;48.072;11.682;2023-12-20T02:00:50;5.20;65.50
21473;DHT22;10898;48.072;11.682;2023-12-20T02:02:53;5.30;65.90
21473;DHT22;10898;48.072;11.682;2023-12-20T02:04:55;5.20;65.70
21473;DHT22;10898;48.072;11.682;2023-12-20T02:06:59;5.20;66.70
21473;DHT22;10898;48.072;11.682;2023-12-20T02:09:01;5.10;67.80
21473;DHT22;10898;48.072;11.682;2023-12-20T02:11:03;5.10;66.60
21473;DHT22;10898;48.072;11.682;2023-12-20T02:13:05;5.20;67.20
21473;DHT22;10898;48.072;11.682;2023-12-20T02:15:07;5.10;67.00
21473;DHT22;10898;48.072;11.682;2023-12-20T02:17:09;5.20;67.00
21473;DHT22;10898;48.072;11.682;2023-12-20T02:19:14;5.20;67.30
21473;DHT22;10898;48.072;11.682;2023-12-20T02:21:16;5.10;67.60
21473;DHT22;10898;48.072;11.682;2023-12-20T02:23:18;5.10;67.80
21473;DHT22;10898;48.072;11.682;2023-12-20T02:25:20;5.10;67.50
21473;DHT22;10898;48.072;11.682;2023-12-20T02:27:23;5.10;66.70
21473;DHT22;10898;48.072;11.682;2023-12-20T02:29:25;5.20;66.10
21473;DHT22;10898;48.072;11.682;2023-12-20T02:31:27;5.20;65.10
21473;DHT22;10898;48.072;11.682;2023-12-20T02:33:29;5.30;65.30
21473;DHT22;10898;48.072;11.682;2023-12-20T02:35:30;5.30;64.80
21473;DHT22;10898;48.072;11.682;2023-12-20T02:37:35;5.30;65.50
21473;DHT22;10898;48.072;11.682;2023-12-20T02:39:37;5.30;65.40
21473;DHT22;10898;48.072;11.682;2023-12-20T02:41:39;5.40;65.10
21473;DHT22;10898;48.072;11.682;2023-12-20T02:43:40;5.40;66.00
21473;DHT22;10898;48.072;11.682;2023-12-20T02:45:42;5.40;65.60
21473;DHT22;10898;48.072;11.682;2023-12-20T02:47:44;5.50;65.50
21473;DHT22;10898;48.072;11.682;2023-12-20T02:49:46;5.50;65.00
21473;DHT22;10898;48.072;11.682;2023-12-20T02:51:48;5.50;65.20
21473;DHT22;10898;48.072;11.682;2023-12-20T02:53:50;5.50;64.50
21473;DHT22;10898;48.072;11.682;2023-12-20T02:55:52;5.60;64.30
21473;DHT22;10898;48.072;11.682;2023-12-20T02:57:54;5.60;64.10
21473;DHT22;10898;48.072;11.682;2023-12-20T02:59:56;5.70;64.10
21473;DHT22;10898;48.072;11.682;2023-12-20T03:01:58;5.70;64.50
21473;DHT22;10898;48.072;11.682;2023-12-20T03:04:00;5.70;64.90
21473;DHT22;10898;48.072;11.682;2023-12-20T03:06:02;5.70;65.10
21473;DHT22;10898;48.072;11.682;2023-12-20T03:08:04;5.70;65.60
21473;DHT22;10898;48.072;11.682;2023-12-20T03:10:06;5.70;65.70
21473;DHT22;10898;48.072;11.682;2023-12-20T03:12:21;5.70;65.80
21473;DHT22;10898;48.072;11.682;2023-12-20T03:14:22;5.60;66.10
21473;DHT22;10898;48.072;11.682;2023-12-20T03:16:24;5.60;66.20
21473;DHT22;10898;48.072;11.682;2023-12-20T03:18:26;5.60;66.50
21473;DHT22;10898;48.072;11.682;2023-12-20T03:20:30;5.60;66.90
21473;DHT22;10898;48.072;11.682;2023-12-20T03:22:35;5.60;66.50
21473;DHT22;10898;48.072;11.682;2023-12-20T03:24:37;5.60;66.70
21473;DHT22;10898;48.072;11.682;2023-12-20T03:26:39;5.60;67.10
21473;DHT22;10898;48.072;11.682;2023-12-20T03:28:41;5.60;67.10
21473;DHT22;10898;48.072;11.682;2023-12-20T03:30:42;5.60;67.70
21473;DHT22;10898;48.072;11.682;2023-12-20T03:32:44;5.60;67.70
21473;DHT22;10898;48.072;11.682;2023-12-20T03:34:47;5.60;67.70
21473;DHT22;10898;48.072;11.682;2023-12-20T03:36:50;5.60;67.60
21473;DHT22;10898;48.072;11.682;2023-12-20T03:38:52;5.60;67.90
21473;DHT22;10898;48.072;11.682;2023-12-20T03:40:54;5.60;68.00
21473;DHT22;10898;48.072;11.682;2023-12-20T03:42:56;5.60;68.00
21473;DHT22;10898;48.072;11.682;2023-12-20T03:44:58;5.60;68.00
21473;DHT22;10898;48.072;11.682;2023-12-20T03:47:00;5.60;68.20
21473;DHT22;10898;48.072;11.682;2023-12-20T03:49:01;5.60;68.30
21473;DHT22;10898;48.072;11.682;2023-12-20T03:51:05;5.60;68.30
21473;DHT22;10898;48.072;11.682;2023-12-20T03:53:07;5.60;68.60
21473;DHT22;10898;48.072;11.682;2023-12-20T03:55:09;5.50;68.60
21473;DHT22;10898;48.072;11.682;2023-12-20T03:57:11;5.50;68.90
21473;DHT22;10898;48.072;11.682;2023-12-20T03:59:13;5.50;69.10
21473;DHT22;10898;48.072;11.682;2023-12-20T04:01:15;5.50;69.30
21473;DHT22;10898;48.072;11.682;2023-12-20T04:03:17;5.50;69.50
21473;DHT22;10898;48.072;11.682;2023-12-20T04:05:19;5.50;69.70
21473;DHT22;10898;48.072;11.682;2023-12-20T04:07:21;5.50;69.90
21473;DHT22;10898;48.072;11.682;2023-12-20T04:09:23;5.50;70.20
21473;DHT22;10898;48.072;11.682;2023-12-20T04:11:25;5.60;70.70
21473;DHT22;10898;48.072;11.682;2023-12-20T04:13:27;5.60;71.40
21473;DHT22;10898;48.072;11.682;2023-12-20T04:15:28;5.70;72.90
21473;DHT22;10898;48.072;11.682;2023-12-20T04:17:30;5.70;74.90
21473;DHT22;10898;48.072;11.682;2023-12-20T04:19:32;5.80;77.50
21473;DHT22;10898;48.072;11.682;2023-12-20T04:21:34;5.80;78.30
21473;DHT22;10898;48.072;11.682;2023-12-20T04:23:36;5.90;79.90
21473;DHT22;10898;48.072;11.682;2023-12-20T04:25:38;5.90;80.10
21473;DHT22;10898;48.072;11.682;2023-12-20T04:27:40;5.90;81.00
21473;DHT22;10898;48.072;11.682;2023-12-20T04:29:41;6.00;81.20
21473;DHT22;10898;48.072;11.682;2023-12-20T04:31:43;6.00;81.50
21473;DHT22;10898;48.072;11.682;2023-12-20T04:33:45;6.00;81.70
21473;DHT22;10898;48.072;11.682;2023-12-20T04:35:47;6.00;81.90
21473;DHT22;10898;48.072;11.682;2023-12-20T04:37:49;6.00;82.30
21473;DHT22;10898;48.072;11.682;2023-12-20T04:39:51;6.00;82.60
21473;DHT22;10898;48.072;11.682;2023-12-20T04:41:53;6.00;82.70
21473;DHT22;10898;48.072;11.682;2023-12-20T04:43:55;5.90;83.00
21473;DHT22;10898;48.072;11.682;2023-12-20T04:45:56;6.00;83.00
21473;DHT22;10898;48.072;11.682;2023-12-20T04:47:58;5.90;83.00
21473;DHT22;10898;48.072;11.682;2023-12-20T04:50:00;6.00;83.40
21473;DHT22;10898;48.072;11.682;2023-12-20T04:52:02;6.00;83.50
21473;DHT22;10898;48.072;11.682;2023-12-20T04:54:04;5.90;83.90
21473;DHT22;10898;48.072;11.682;2023-12-20T04:56:06;5.90;84.00
21473;DHT22;10898;48.072;11.682;2023-12-20T04:58:08;5.90;84.10
21473;DHT22;10898;48.072;11.682;2023-12-20T05:00:10;5.90;84.30
21473;DHT22;10898;48.072;11.682;2023-12-20T05:02:12;5.90;84.40
21473;DHT22;10898;48.072;11.682;2023-12-20T05:04:14;6.00;84.50
21473;DHT22;10898;48.072;11.682;2023-12-20T05:06:16;6.00;84.60
21473;DHT22;10898;48.072;11.682;2023-12-20T05:08:18;6.00;84.80
21473;DHT22;10898;48.072;11.682;2023-12-20T05:10:20;6.00;85.20
21473;DHT22;10898;48.072;11.682;2023-12-20T05:12:22;6.00;85.50
21473;DHT22;10898;48.072;11.682;2023-12-20T05:14:24;5.90;86.00
21473;DHT22;10898;48.072;11.682;2023-12-20T05:16:26;6.00;86.40
21473;DHT22;10898;48.072;11.682;2023-12-20T05:18:28;5.90;86.90
21473;DHT22;10898;48.072;11.682;2023-12-20T05:20:30;5.90;87.30
21473;DHT22;10898;48.072;11.682;2023-12-20T05:22:32;5.90;87.70
21473;DHT22;10898;48.072;11.682;2023-12-20T05:24:34;5.90;87.90
21473;DHT22;10898;48.072;11.682;2023-12-20T05:26:36;5.80;88.10
21473;DHT22;10898;48.072;11.682;2023-12-20T05:28:38;5.80;88.60
21473;DHT22;10898;48.072;11.682;2023-12-20T05:30:39;5.80;89.00
21473;DHT22;10898;48.072;11.682;2023-12-20T05:32:41;5.70;89.60
21473;DHT22;10898;48.072;11.682;2023-12-20T05:34:43;5.70;89.60
21473;DHT22;10898;48.072;11.682;2023-12-20T05:36:45;5.70;89.80
21473;DHT22;10898;48.072;11.682;2023-12-20T05:38:47;5.60;90.50
21473;DHT22;10898;48.072;11.682;2023-12-20T05:40:49;5.60;91.10
21473;DHT22;10898;48.072;11.682;2023-12-20T05:42:51;5.60;91.10
21473;DHT22;10898;48.072;11.682;2023-12-20T05:44:53;5.60;91.70
21473;DHT22;10898;48.072;11.682;2023-12-20T05:46:57;5.50;92.20
21473;DHT22;10898;48.072;11.682;2023-12-20T05:48:59;5.50;92.70
21473;DHT22;10898;48.072;11.682;2023-12-20T05:51:01;5.50;92.80
21473;DHT22;10898;48.072;11.682;2023-12-20T05:53:02;5.40;93.00
21473;DHT22;10898;48.072;11.682;2023-12-20T05:55:04;5.30;93.40
21473;DHT22;10898;48.072;11.682;2023-12-20T05:57:06;5.30;93.80
21473;DHT22;10898;48.072;11.682;2023-12-20T05:59:08;5.30;93.50
21473;DHT22;10898;48.072;11.682;2023-12-20T06:01:10;5.30;93.80
21473;DHT22;10898;48.072;11.682;2023-12-20T06:03:12;5.30;93.50
21473;DHT22;10898;48.072;11.682;2023-12-20T06:05:14;5.20;93.60
21473;DHT22;10898;48.072;11.682;2023-12-20T06:07:16;5.20;93.70
21473;DHT22;10898;48.072;11.682;2023-12-20T06:09:18;5.10;93.40
21473;DHT22;10898;48.072;11.682;2023-12-20T06:11:21;5.10;93.70
21473;DHT22;10898;48.072;11.682;2023-12-20T06:13:22;5.10;93.60
21473;DHT22;10898;48.072;11.682;2023-12-20T06:15:24;5.00;93.50
21473;DHT22;10898;48.072;11.682;2023-12-20T06:17:26;5.00;94.00
21473;DHT22;10898;48.072;11.682;2023-12-20T06:19:28;5.00;93.90
21473;DHT22;10898;48.072;11.682;2023-12-20T06:21:30;5.00;94.20
21473;DHT22;10898;48.072;11.682;2023-12-20T06:23:32;5.00;94.70
21473;DHT22;10898;48.072;11.682;2023-12-20T06:25:34;5.00;94.50
21473;DHT22;10898;48.072;11.682;2023-12-20T06:27:36;4.90;94.50
21473;DHT22;10898;48.072;11.682;2023-12-20T06:29:37;4.90;94.10
21473;DHT22;10898;48.072;11.682;2023-12-20T06:31:39;4.90;94.00
21473;DHT22;10898;48.072;11.682;2023-12-20T06:33:42;4.80;94.40
21473;DHT22;10898;48.072;11.682;2023-12-20T06:35:44;4.70;94.70
21473;DHT22;10898;48.072;11.682;2023-12-20T06:37:46;4.70;94.90
21473;DHT22;10898;48.072;11.682;2023-12-20T06:39:48;4.70;95.20
21473;DHT22;10898;48.072;11.682;2023-12-20T06:41:50;4.70;94.70
21473;DHT22;10898;48.072;11.682;2023-12-20T06:43:52;4.70;94.90
21473;DHT22;10898;48.072;11.682;2023-12-20T06:45:55;4.70;94.60
21473;DHT22;10898;48.072;11.682;2023-12-20T06:47:56;4.70;95.00
21473;DHT22;10898;48.072;11.682;2023-12-20T06:49:58;4.60;95.10
21473;DHT22;10898;48.072;11.682;2023-12-20T06:52:01;4.60;95.10
21473;DHT22;10898;48.072;11.682;2023-12-20T06:54:03;4.50;95.20
21473;DHT22;10898;48.072;11.682;2023-12-20T06:56:05;4.50;94.90
21473;DHT22;10898;48.072;11.682;2023-12-20T06:58:06;4.50;94.60
21473;DHT22;10898;48.072;11.682;2023-12-20T07:00:11;4.40;95.10
21473;DHT22;10898;48.072;11.682;2023-12-20T07:02:13;4.40;95.30
21473;DHT22;10898;48.072;11.682;2023-12-20T07:04:16;4.40;95.20
21473;DHT22;10898;48.072;11.682;2023-12-20T07:06:22;4.30;95.30
21473;DHT22;10898;48.072;11.682;2023-12-20T07:08:27;4.30;95.20
21473;DHT22;10898;48.072;11.682;2023-12-20T07:10:29;4.20;96.00
21473;DHT22;10898;48.072;11.682;2023-12-20T07:12:31;4.20;95.50
21473;DHT22;10898;48.072;11.682;2023-12-20T07:14:32;4.20;96.10
21473;DHT22;10898;48.072;11.682;2023-12-20T07:16:34;4.20;96.40
21473;DHT22;10898;48.072;11.682;2023-12-20T07:18:37;4.20;96.80
21473;DHT22;10898;48.072;11.682;2023-12-20T07:20:39;4.20;96.50
21473;DHT22;10898;48.072;11.682;2023-12-20T07:22:41;4.20;95.90
21473;DHT22;10898;48.072;11.682;2023-12-20T07:24:43;4.20;96.20
21473;DHT22;10898;48.072;11.682;2023-12-20T07:26:45;4.20;96.10
21473;DHT22;10898;48.072;11.682;2023-12-20T07:28:47;4.20;96.40
21473;DHT22;10898;48.072;11.682;2023-12-20T07:30:49;4.10;96.80
21473;DHT22;10898;48.072;11.682;2023-12-20T07:32:51;4.10;96.90
21473;DHT22;10898;48.072;11.682;2023-12-20T07:34:54;4.10;96.90
21473;DHT22;10898;48.072;11.682;2023-12-20T07:36:56;4.10;97.50
21473;DHT22;10898;48.072;11.682;2023-12-20T07:38:58;4.20;97.20
21473;DHT22;10898;48.072;11.682;2023-12-20T07:41:00;4.20;97.00
21473;DHT22;10898;48.072;11.682;2023-12-20T07:43:02;4.10;97.20
21473;DHT22;10898;48.072;11.682;2023-12-20T07:45:04;4.10;97.30
21473;DHT22;10898;48.072;11.682;2023-12-20T07:47:06;4.20;97.20
21473;DHT22;10898;48.072;11.682;2023-12-20T07:49:08;4.20;97.30
21473;DHT22;10898;48.072;11.682;2023-12-20T07:51:12;4.20;97.50
21473;DHT22;10898;48.072;11.682;2023-12-20T07:53:13;4.20;97.50
21473;DHT22;10898;48.072;11.682;2023-12-20T07:55:15;4.20;97.80
21473;DHT22;10898;48.072;11.682;2023-12-20T07:57:17;4.20;97.70
21473;DHT22;10898;48.072;11.682;2023-12-20T07:59:19;4.20;97.60
21473;DHT22;10898;48.072;11.682;2023-12-20T08:01:33;4.20;97.40
21473;DHT22;10898;48.072;11.682;2023-12-20T08:03:35;4.20;97.80
21473;DHT22;10898;48.072;11.682;2023-12-20T08:05:39;4.20;97.60
21473;DHT22;10898;48.072;11.682;2023-12-20T08:07:41;4.20;97.30
21473;DHT22;10898;48.072;11.682;2023-12-20T08:09:44;4.30;97.60
21473;DHT22;10898;48.072;11.682;2023-12-20T08:11:46;4.30;97.50
21473;DHT22;10898;48.072;11.682;2023-12-20T08:13:48;4.30;97.40
21473;DHT22;10898;48.072;11.682;2023-12-20T08:15:50;4.20;97.80
21473;DHT22;10898;48.072;11.682;2023-12-20T08:17:52;4.20;97.80
21473;DHT22;10898;48.072;11.682;2023-12-20T08:19:54;4.20;97.80
21473;DHT22;10898;48.072;11.682;2023-12-20T08:21:56;4.20;97.50
21473;DHT22;10898;48.072;11.682;2023-12-20T08:23:58;4.20;98.20
21473;DHT22;10898;48.072;11.682;2023-12-20T08:26:08;4.20;98.10
21473;DHT22;10898;48.072;11.682;2023-12-20T08:28:10;4.20;98.20
21473;DHT22;10898;48.072;11.682;2023-12-20T08:30:12;4.20;98.30
21473;DHT22;10898;48.072;11.682;2023-12-20T08:32:14;4.30;98.20
21473;DHT22;10898;48.072;11.682;2023-12-20T08:34:16;4.30;97.90
21473;DHT22;10898;48.072;11.682;2023-12-20T08:36:19;4.20;98.10
21473;DHT22;10898;48.072;11.682;2023-12-20T08:38:23;4.30;97.70
21473;DHT22;10898;48.072;11.682;2023-12-20T08:40:25;4.30;98.00
21473;DHT22;10898;48.072;11.682;2023-12-20T08:42:26;4.30;97.90
21473;DHT22;10898;48.072;11.682;2023-12-20T08:44:32;4.30;97.90
21473;DHT22;10898;48.072;11.682;2023-12-20T08:46:34;4.30;97.80
21473;DHT22;10898;48.072;11.682;2023-12-20T08:48:37;4.30;97.60
21473;DHT22;10898;48.072;11.682;2023-12-20T08:50:39;4.30;97.80
21473;DHT22;10898;48.072;11.682;2023-12-20T08:52:41;4.30;97.80
21473;DHT22;10898;48.072;11.682;2023-12-20T08:54:43;4.30;98.20
21473;DHT22;10898;48.072;11.682;2023-12-20T08:56:46;4.30;98.20
21473;DHT22;10898;48.072;11.682;2023-12-20T08:58:48;4.30;98.00
21473;DHT22;10898;48.072;11.682;2023-12-20T09:00:50;4.30;97.90
21473;DHT22;10898;48.072;11.682;2023-12-20T09:02:52;4.30;98.00
21473;DHT22;10898;48.072;11.682;2023-12-20T09:04:54;4.30;97.50
21473;DHT22;10898;48.072;11.682;2023-12-20T09:06:56;4.30;98.00
21473;DHT22;10898;48.072;11.682;2023-12-20T09:08:57;4.30;98.50
21473;DHT22;10898;48.072;11.682;2023-12-20T09:10:59;4.30;98.90
21473;DHT22;10898;48.072;11.682;2023-12-20T09:13:02;4.30;99.20
21473;DHT22;10898;48.072;11.682;2023-12-20T09:15:05;4.40;98.80
21473;DHT22;10898;48.072;11.682;2023-12-20T09:17:07;4.40;98.60
21473;DHT22;10898;48.072;11.682;2023-12-20T09:19:10;4.50;97.90
21473;DHT22;10898;48.072;11.682;2023-12-20T09:21:12;4.50;98.00
21473;DHT22;10898;48.072;11.682;2023-12-20T09:23:14;4.50;98.30
21473;DHT22;10898;48.072;11.682;2023-12-20T09:25:16;4.50;98.50
21473;DHT22;10898;48.072;11.682;2023-12-20T09:27:19;4.50;98.00
21473;DHT22;10898;48.072;11.682;2023-12-20T09:29:21;4.50;97.70
21473;DHT22;10898;48.072;11.682;2023-12-20T09:31:23;4.50;97.60
21473;DHT22;10898;48.072;11.682;2023-12-20T09:33:25;4.50;97.60
21473;DHT22;10898;48.072;11.682;2023-12-20T09:35:27;4.50;98.00
21473;DHT22;10898;48.072;11.682;2023-12-20T09:37:29;4.50;97.60
21473;DHT22;10898;48.072;11.682;2023-12-20T09:39:31;4.50;97.50
21473;DHT22;10898;48.072;11.682;2023-12-20T09:41:37;4.50;98.00
21473;DHT22;10898;48.072;11.682;2023-12-20T09:43:44;4.50;97.60
21473;DHT22;10898;48.072;11.682;2023-12-20T09:45:47;4.50;98.20
21473;DHT22;10898;48.072;11.682;2023-12-20T09:47:53;4.60;97.70
21473;DHT22;10898;48.072;11.682;2023-12-20T09:49:56;4.60;97.80
21473;DHT22;10898;48.072;11.682;2023-12-20T09:52:00;4.70;97.20
21473;DHT22;10898;48.072;11.682;2023-12-20T09:54:03;4.70;97.00
21473;DHT22;10898;48.072;11.682;2023-12-20T09:56:06;4.70;97.00
21473;DHT22;10898;48.072;11.682;2023-12-20T09:58:08;4.70;96.90
21473;DHT22;10898;48.072;11.682;2023-12-20T10:00:11;4.70;97.10
21473;DHT22;10898;48.072;11.682;2023-12-20T10:02:13;4.70;97.20
21473;DHT22;10898;48.072;11.682;2023-12-20T10:04:18;4.70;97.10
21473;DHT22;10898;48.072;11.682;2023-12-20T10:06:31;4.70;96.80
21473;DHT22;10898;48.072;11.682;2023-12-20T10:08:33;4.70;96.70
21473;DHT22;10898;48.072;11.682;2023-12-20T10:10:34;4.70;97.20
21473;DHT22;10898;48.072;11.682;2023-12-20T10:13:06;4.70;96.30
21473;DHT22;10898;48.072;11.682;2023-12-20T10:15:09;4.70;97.10
21473;DHT22;10898;48.072;11.682;2023-12-20T10:17:12;4.70;97.80
21473;DHT22;10898;48.072;11.682;2023-12-20T10:19:16;4.70;97.80
21473;DHT22;10898;48.072;11.682;2023-12-20T10:21:19;4.70;97.10
21473;DHT22;10898;48.072;11.682;2023-12-20T10:23:22;4.80;97.50
21473;DHT22;10898;48.072;11.682;2023-12-20T10:25:24;4.80;97.60
21473;DHT22;10898;48.072;11.682;2023-12-20T10:27:26;4.80;97.90
21473;DHT22;10898;48.072;11.682;2023-12-20T10:29:35;4.90;97.90
21473;DHT22;10898;48.072;11.682;2023-12-20T10:31:39;4.90;97.00
21473;DHT22;10898;48.072;11.682;2023-12-20T10:33:41;4.90;97.30
21473;DHT22;10898;48.072;11.682;2023-12-20T10:35:43;5.00;97.20
21473;DHT22;10898;48.072;11.682;2023-12-20T10:37:49;5.00;97.30
21473;DHT22;10898;48.072;11.682;2023-12-20T10:39:52;5.00;97.30
21473;DHT22;10898;48.072;11.682;2023-12-20T10:41:58;5.00;96.30
21473;DHT22;10898;48.072;11.682;2023-12-20T10:44:02;5.10;96.50
21473;DHT22;10898;48.072;11.682;2023-12-20T10:46:05;5.10;96.70
21473;DHT22;10898;48.072;11.682;2023-12-20T10:48:10;5.10;95.80
21473;DHT22;10898;48.072;11.682;2023-12-20T10:50:14;5.10;95.40
21473;DHT22;10898;48.072;11.682;2023-12-20T10:52:17;5.10;96.00
21473;DHT22;10898;48.072;11.682;2023-12-20T10:54:19;5.10;95.50
21473;DHT22;10898;48.072;11.682;2023-12-20T10:56:21;5.20;96.00
21473;DHT22;10898;48.072;11.682;2023-12-20T10:58:26;5.20;95.70
21473;DHT22;10898;48.072;11.682;2023-12-20T11:00:31;5.10;96.10
21473;DHT22;10898;48.072;11.682;2023-12-20T11:02:37;5.20;95.90
21473;DHT22;10898;48.072;11.682;2023-12-20T11:06:56;5.30;95.70
21473;DHT22;10898;48.072;11.682;2023-12-20T11:11:37;5.20;95.50
21473;DHT22;10898;48.072;11.682;2023-12-20T11:14:08;5.20;96.00
21473;DHT22;10898;48.072;11.682;2023-12-20T11:16:13;5.20;96.30
21473;DHT22;10898;48.072;11.682;2023-12-20T11:18:15;5.20;95.80
21473;DHT22;10898;48.072;11.682;2023-12-20T11:20:17;5.20;96.10
21473;DHT22;10898;48.072;11.682;2023-12-20T11:22:25;5.20;96.50
21473;DHT22;10898;48.072;11.682;2023-12-20T11:24:27;5.30;96.00
21473;DHT22;10898;48.072;11.682;2023-12-20T11:26:29;5.20;96.20
21473;DHT22;10898;48.072;11.682;2023-12-20T11:28:31;5.20;95.60
21473;DHT22;10898;48.072;11.682;2023-12-20T11:30:47;5.20;95.60
21473;DHT22;10898;48.072;11.682;2023-12-20T11:32:49;5.10;96.00
21473;DHT22;10898;48.072;11.682;2023-12-20T11:34:51;5.10;96.20
21473;DHT22;10898;48.072;11.682;2023-12-20T11:36:59;5.10;96.50
21473;DHT22;10898;48.072;11.682;2023-12-20T11:39:04;5.10;96.40
21473;DHT22;10898;48.072;11.682;2023-12-20T11:41:13;5.10;96.20
21473;DHT22;10898;48.072;11.682;2023-12-20T11:43:37;5.00;97.10
21473;DHT22;10898;48.072;11.682;2023-12-20T11:45:49;5.10;96.40
21473;DHT22;10898;48.072;11.682;2023-12-20T11:47:52;5.10;96.40
21473;DHT22;10898;48.072;11.682;2023-12-20T11:49:57;5.00;96.90
21473;DHT22;10898;48.072;11.682;2023-12-20T11:51:59;5.00;97.20
21473;DHT22;10898;48.072;11.682;2023-12-20T11:54:02;5.00;96.80
21473;DHT22;10898;48.072;11.682;2023-12-20T11:56:06;5.00;97.30
21473;DHT22;10898;48.072;11.682;2023-12-20T11:58:08;5.00;97.60
21473;DHT22;10898;48.072;11.682;2023-12-20T12:00:11;5.00;97.80
21473;DHT22;10898;48.072;11.682;2023-12-20T12:02:13;5.00;98.00
21473;DHT22;10898;48.072;11.682;2023-12-20T12:04:15;5.10;97.50
21473;DHT22;10898;48.072;11.682;2023-12-20T12:06:19;5.10;98.00
21473;DHT22;10898;48.072;11.682;2023-12-20T12:08:21;5.10;98.20
21473;DHT22;10898;48.072;11.682;2023-12-20T12:10:22;5.10;98.20
21473;DHT22;10898;48.072;11.682;2023-12-20T12:12:24;5.20;97.10
21473;DHT22;10898;48.072;11.682;2023-12-20T12:14:31;5.20;97.30
21473;DHT22;10898;48.072;11.682;2023-12-20T12:16:32;5.20;97.10
21473;DHT22;10898;48.072;11.682;2023-12-20T12:18:35;5.20;96.60
21473;DHT22;10898;48.072;11.682;2023-12-20T12:20:37;5.20;96.10
21473;DHT22;10898;48.072;11.682;2023-12-20T12:22:39;5.30;95.80
21473;DHT22;10898;48.072;11.682;2023-12-20T12:24:45;5.30;95.30
21473;DHT22;10898;48.072;11.682;2023-12-20T12:26:57;5.30;95.10
21473;DHT22;10898;48.072;11.682;2023-12-20T12:28:59;5.30;95.10
21473;DHT22;10898;48.072;11.682;2023-12-20T12:31:01;5.30;94.60
21473;DHT22;10898;48.072;11.682;2023-12-20T12:33:04;5.30;94.40
21473;DHT22;10898;48.072;11.682;2023-12-20T12:35:06;5.30;94.70
21473;DHT22;10898;48.072;11.682;2023-12-20T12:37:08;5.30;94.30
21473;DHT22;10898;48.072;11.682;2023-12-20T12:39:13;5.30;94.30
21473;DHT22;10898;48.072;11.682;2023-12-20T12:41:17;5.30;94.10
21473;DHT22;10898;48.072;11.682;2023-12-20T12:43:19;5.20;94.00
21473;DHT22;10898;48.072;11.682;2023-12-20T12:45:21;5.20;94.10
21473;DHT22;10898;48.072;11.682;2023-12-20T12:47:24;5.20;93.80
21473;DHT22;10898;48.072;11.682;2023-12-20T12:49:28;5.10;93.80
21473;DHT22;10898;48.072;11.682;2023-12-20T12:51:30;5.10;94.00
21473;DHT22;10898;48.072;11.682;2023-12-20T12:53:33;5.10;94.10
21473;DHT22;10898;48.072;11.682;2023-12-20T12:55:35;5.10;93.90
21473;DHT22;10898;48.072;11.682;2023-12-20T12:57:38;5.10;94.20
21473;DHT22;10898;48.072;11.682;2023-12-20T12:59:39;5.10;94.50